Time;durP1;ratioP1;P1;durP2;ratioP2;P2;SDS_P1;SDS_P2;PMS_P1;PMS_P2;Temp;Humidity;BMP_temperature;BMP_pressure;BME280_temperature;BME280_humidity;BME280_pressure;Samples;Min_cycle;Max_cycle;Signal;HPM_P1;HPM_P2
2021/03/06 00:00:48;;;;;;;4.22;2.30;;;16.60;55.70;;;;;;5009872;28;20033;-56
2021/03/06 00:03:14;;;;;;;7.32;2.83;;;16.60;55.70;;;;;;5010841;28;20131;-56
2021/03/06 00:05:39;;;;;;;8.50;2.65;;;16.60;55.70;;;;;;5010892;28;20018;-56
2021/03/06 00:08:05;;;;;;;5.25;2.20;;;16.60;55.70;;;;;;5010732;28;20028;-56
2021/03/06 00:10:30;;;;;;;5.88;2.50;;;16.60;55.80;;;;;;5010819;28;20018;-56
2021/03/06 00:12:56;;;;;;;5.95;2.35;;;16.50;55.80;;;;;;5012641;28;20030;-56
2021/03/06 00:15:25;;;;;;;6.13;2.33;;;16.50;55.80;;;;;;5019507;28;20364;-56
2021/03/06 00:17:51;;;;;;;7.28;2.28;;;16.50;55.80;;;;;;5014739;28;20051;-56
2021/03/06 00:20:17;;;;;;;6.32;2.22;;;16.50;55.80;;;;;;5011571;28;20022;-56
2021/03/06 00:22:42;;;;;;;5.72;2.15;;;16.40;55.90;;;;;;5015852;28;20053;-56
2021/03/06 00:25:10;;;;;;;4.63;2.08;;;16.40;55.90;;;;;;5013780;28;20025;-56
2021/03/06 00:27:36;;;;;;;4.68;2.22;;;16.40;55.90;;;;;;5012526;28;20071;-56
2021/03/06 00:30:09;;;;;;;5.38;2.20;;;16.40;56.00;;;;;;5014163;28;20530;-56
2021/03/06 00:32:35;;;;;;;5.68;2.25;;;16.40;56.00;;;;;;5014278;28;20117;-56
2021/03/06 00:35:00;;;;;;;6.43;2.28;;;16.30;56.00;;;;;;5014476;28;20093;-55
2021/03/06 00:37:26;;;;;;;6.72;2.30;;;16.30;56.00;;;;;;5014246;28;20061;-56
2021/03/06 00:39:52;;;;;;;5.45;2.13;;;16.30;56.10;;;;;;5012692;28;20443;-55
2021/03/06 00:42:17;;;;;;;5.43;2.40;;;16.20;56.00;;;;;;5014325;28;20498;-55
2021/03/06 00:44:43;;;;;;;4.63;1.98;;;16.20;56.00;;;;;;5014202;28;20026;-56
2021/03/06 00:47:08;;;;;;;7.00;2.50;;;16.20;56.00;;;;;;5013801;28;20022;-56
2021/03/06 00:49:35;;;;;;;5.72;2.22;;;16.20;55.90;;;;;;5013767;28;20038;-56
2021/03/06 00:52:01;;;;;;;4.90;1.90;;;16.20;55.90;;;;;;5014090;28;20021;-56
2021/03/06 00:54:26;;;;;;;5.40;2.15;;;16.20;55.90;;;;;;5037371;22;20048;-53
2021/03/06 00:56:52;;;;;;;5.95;1.98;;;16.20;56.00;;;;;;5040729;28;20037;-53
2021/03/06 00:59:17;;;;;;;6.90;2.35;;;16.10;56.00;;;;;;5036761;28;20021;-53
2021/03/06 01:01:43;;;;;;;4.80;2.20;;;16.10;56.50;;;;;;5031473;28;20022;-53
2021/03/06 01:04:08;;;;;;;5.50;2.00;;;16.10;56.00;;;;;;5028678;28;20018;-56
2021/03/06 01:06:34;;;;;;;3.65;2.00;;;16.10;56.00;;;;;;5013947;28;20029;-55
2021/03/06 01:09:00;;;;;;;4.10;1.80;;;16.10;56.00;;;;;;4994557;28;20057;-55
2021/03/06 01:11:26;;;;;;;4.45;2.00;;;16.00;56.00;;;;;;5013732;28;20033;-54
2021/03/06 01:13:52;;;;;;;3.88;1.77;;;16.00;56.10;;;;;;5012976;28;20026;-53
2021/03/06 01:16:18;;;;;;;4.65;2.10;;;16.00;56.10;;;;;;4996372;28;20036;-54
2021/03/06 01:18:43;;;;;;;4.38;1.80;;;16.00;56.10;;;;;;5013874;28;20018;-54
2021/03/06 01:21:09;;;;;;;3.80;1.90;;;16.00;56.20;;;;;;5028101;28;20113;-54
2021/03/06 01:23:34;;;;;;;4.25;2.28;;;16.00;56.20;;;;;;4993192;28;20026;-54
2021/03/06 01:26:00;;;;;;;4.43;1.90;;;15.90;56.10;;;;;;5002965;28;20026;-54
2021/03/06 01:28:25;;;;;;;4.32;2.20;;;15.90;56.10;;;;;;5006216;28;20113;-54
2021/03/06 01:30:51;;;;;;;3.78;1.85;;;15.90;56.20;;;;;;5000985;28;20758;-57
2021/03/06 01:33:17;;;;;;;4.65;2.05;;;15.90;56.20;;;;;;4994377;28;20027;-56
2021/03/06 01:35:42;;;;;;;7.18;2.30;;;15.80;56.20;;;;;;5004083;28;20064;-57
2021/03/06 01:38:08;;;;;;;4.45;2.00;;;15.90;56.30;;;;;;5013303;28;20380;-55
2021/03/06 01:40:36;;;;;;;6.50;2.00;;;15.80;56.30;;;;;;4995727;28;20027;-56
2021/03/06 01:43:05;;;;;;;4.13;1.73;;;15.80;56.30;;;;;;4994096;28;20022;-57
2021/03/06 01:45:30;;;;;;;6.38;2.00;;;15.80;56.30;;;;;;5000709;28;20026;-56
2021/03/06 01:47:56;;;;;;;5.57;2.10;;;15.80;56.40;;;;;;5011504;28;20028;-56
2021/03/06 01:53:44;;;;;;;4.63;1.92;;;15.80;56.40;;;;;;5012571;28;20525;-56
2021/03/06 01:59:32;;;;;;;5.70;2.10;;;15.70;56.40;;;;;;5008757;28;20100;-56
2021/03/06 02:01:57;;;;;;;4.05;2.13;;;15.70;56.40;;;;;;4999919;28;20488;-55
2021/03/06 02:04:23;;;;;;;5.82;1.90;;;15.60;56.40;;;;;;4993471;28;20106;-56
2021/03/06 02:06:48;;;;;;;4.43;2.03;;;15.60;56.40;;;;;;4998661;28;20035;-57
2021/03/06 02:09:14;;;;;;;5.22;2.05;;;15.70;56.40;;;;;;4997291;28;20100;-55
2021/03/06 02:12:13;;;;;;;6.30;2.03;;;15.60;56.40;;;;;;5012951;28;20030;-56
2021/03/06 02:14:57;;;;;;;4.10;1.80;;;15.60;56.40;;;;;;4987183;28;20030;-54
2021/03/06 02:17:40;;;;;;;5.03;1.83;;;15.60;56.50;;;;;;5011039;28;20029;-56
2021/03/06 02:20:30;;;;;;;3.78;1.80;;;15.60;56.40;;;;;;4991505;28;20365;-53
2021/03/06 02:23:15;;;;;;;3.83;1.88;;;15.60;56.50;;;;;;4981308;28;20040;-53
2021/03/06 02:26:18;;;;;;;3.40;1.75;;;15.60;56.50;;;;;;4999257;28;20415;-55
2021/03/06 02:29:05;;;;;;;3.50;1.73;;;15.50;56.50;;;;;;4997515;28;20026;-55
2021/03/06 02:31:51;;;;;;;4.85;1.90;;;15.50;56.50;;;;;;4994972;28;20026;-55
2021/03/06 02:34:21;;;;;;;4.47;1.80;;;15.50;56.50;;;;;;4992756;28;21450;-56
2021/03/06 02:36:52;;;;;;;7.38;1.90;;;15.50;56.50;;;;;;4997732;28;20124;-55
2021/03/06 02:39:21;;;;;;;4.18;1.73;;;15.50;56.50;;;;;;5011962;28;20054;-56
2021/03/06 02:41:48;;;;;;;6.55;2.05;;;15.50;56.50;;;;;;5019907;28;20026;-55
2021/03/06 02:44:15;;;;;;;4.35;1.98;;;15.40;56.50;;;;;;5015652;28;20025;-55
2021/03/06 02:46:43;;;;;;;4.07;1.60;;;15.40;56.50;;;;;;5013357;28;20031;-55
2021/03/06 02:49:08;;;;;;;6.05;2.05;;;15.40;56.50;;;;;;5022387;28;20096;-55
2021/03/06 02:51:41;;;;;;;4.35;1.77;;;15.40;56.60;;;;;;5026057;28;20030;-55
2021/03/06 02:54:08;;;;;;;4.65;1.83;;;15.40;56.50;;;;;;5031754;28;20036;-56
2021/03/06 02:56:35;;;;;;;5.22;1.90;;;15.40;56.50;;;;;;5015068;28;20148;-55
2021/03/06 02:59:44;;;;;;;4.68;1.67;;;15.40;56.50;;;;;;4991689;28;20050;-55
2021/03/06 03:02:21;;;;;;;4.15;1.70;;;15.40;56.60;;;;;;4991724;28;20114;-55
2021/03/06 03:05:08;;;;;;;4.82;2.05;;;15.30;56.50;;;;;;4995900;28;20034;-55
2021/03/06 03:07:55;;;;;;;4.10;1.85;;;15.30;56.50;;;;;;4992511;28;20041;-55
2021/03/06 03:10:22;;;;;;;5.68;1.98;;;15.30;56.60;;;;;;5011613;28;20495;-56
2021/03/06 03:13:01;;;;;;;4.25;1.73;;;15.30;56.60;;;;;;4995648;28;20110;-55
2021/03/06 03:15:36;;;;;;;4.38;1.70;;;15.30;56.60;;;;;;4992924;28;20088;-55
2021/03/06 03:18:03;;;;;;;4.05;1.70;;;15.30;56.70;;;;;;4989010;28;20030;-54
2021/03/06 03:20:34;;;;;;;5.65;1.95;;;15.30;56.70;;;;;;4993508;28;20534;-56
2021/03/06 03:23:17;;;;;;;3.35;1.75;;;15.20;56.60;;;;;;4992471;28;20033;-55
2021/03/06 03:25:44;;;;;;;4.53;1.70;;;15.30;56.70;;;;;;4992355;28;20022;-55
2021/03/06 03:28:10;;;;;;;4.65;2.17;;;15.30;56.70;;;;;;5009634;28;20025;-55
2021/03/06 03:30:37;;;;;;;3.85;1.90;;;15.20;56.60;;;;;;4977573;28;20031;-55
2021/03/06 03:33:08;;;;;;;4.90;1.77;;;15.20;56.60;;;;;;5009939;28;20070;-56
2021/03/06 03:35:34;;;;;;;4.10;1.80;;;15.20;56.70;;;;;;4982903;28;20042;-55
2021/03/06 03:38:01;;;;;;;4.57;1.77;;;15.20;56.70;;;;;;4992074;28;20036;-54
2021/03/06 03:40:27;;;;;;;4.82;1.73;;;15.20;56.80;;;;;;5008917;28;20483;-56
2021/03/06 03:42:53;;;;;;;4.25;1.80;;;15.10;56.70;;;;;;5008933;28;20026;-55
2021/03/06 03:45:21;;;;;;;6.90;1.80;;;15.10;56.80;;;;;;4975116;28;20026;-55
2021/03/06 03:47:47;;;;;;;3.65;1.55;;;15.10;56.80;;;;;;4994407;28;20097;-54
2021/03/06 03:50:17;;;;;;;3.47;1.48;;;15.10;56.90;;;;;;5009816;28;20025;-54
2021/03/06 03:52:47;;;;;;;4.05;1.80;;;15.10;56.80;;;;;;5027509;28;20032;-56
2021/03/06 03:55:13;;;;;;;5.97;1.70;;;15.10;56.80;;;;;;5021068;28;20503;-55
2021/03/06 03:57:40;;;;;;;3.67;1.58;;;15.10;56.90;;;;;;4989510;28;20499;-56
2021/03/06 04:00:08;;;;;;;3.90;1.77;;;15.10;56.90;;;;;;5011062;28;20029;-55
2021/03/06 04:02:34;;;;;;;4.93;1.60;;;15.00;56.80;;;;;;5014825;28;20026;-55
2021/03/06 04:05:00;;;;;;;4.72;1.95;;;15.00;56.90;;;;;;5008656;28;20058;-55
2021/03/06 04:07:26;;;;;;;4.32;1.80;;;15.00;56.90;;;;;;4999436;28;20021;-55
2021/03/06 04:09:51;;;;;;;4.00;1.60;;;15.00;56.90;;;;;;4994507;28;20026;-55
2021/03/06 04:12:17;;;;;;;3.80;1.52;;;15.00;56.90;;;;;;5012826;28;20037;-55
2021/03/06 04:14:43;;;;;;;4.50;1.67;;;15.00;56.90;;;;;;5010456;28;20396;-55
2021/03/06 04:17:11;;;;;;;4.18;1.60;;;15.00;56.90;;;;;;4979265;28;20526;-55
2021/03/06 04:19:36;;;;;;;4.28;1.55;;;15.00;57.00;;;;;;4996700;28;20018;-56
2021/03/06 04:22:02;;;;;;;4.72;1.80;;;14.90;56.90;;;;;;4995647;28;20561;-55
2021/03/06 04:24:27;;;;;;;3.55;1.52;;;15.00;57.00;;;;;;4995555;28;20492;-55
2021/03/06 04:26:53;;;;;;;3.92;1.48;;;14.90;57.00;;;;;;4995667;28;20170;-55
2021/03/06 04:29:20;;;;;;;3.65;1.50;;;14.90;57.00;;;;;;5008293;28;20038;-55
2021/03/06 04:31:46;;;;;;;4.68;1.60;;;14.90;57.00;;;;;;5010259;28;20038;-55
2021/03/06 04:34:12;;;;;;;4.03;1.90;;;14.90;57.10;;;;;;5000067;28;20586;-56
2021/03/06 04:36:38;;;;;;;3.47;1.52;;;14.90;57.10;;;;;;5006268;28;20082;-54
2021/03/06 04:39:05;;;;;;;3.00;1.58;;;14.90;57.10;;;;;;5002061;28;20132;-56
2021/03/06 04:41:31;;;;;;;3.53;1.30;;;14.90;57.10;;;;;;5004829;28;20057;-55
2021/03/06 04:43:56;;;;;;;3.53;1.63;;;14.90;57.10;;;;;;4995245;28;20058;-55
2021/03/06 04:46:22;;;;;;;3.38;1.27;;;14.80;57.10;;;;;;4996266;28;20034;-55
2021/03/06 04:48:48;;;;;;;4.70;1.50;;;14.80;57.20;;;;;;4999593;28;20088;-55
2021/03/06 04:51:14;;;;;;;4.20;1.60;;;14.80;57.20;;;;;;4981797;28;20404;-54
2021/03/06 04:53:39;;;;;;;4.07;1.40;;;14.80;57.20;;;;;;5012526;28;20403;-55
2021/03/06 04:56:05;;;;;;;4.93;1.90;;;14.80;57.30;;;;;;5001459;28;20100;-55
2021/03/06 04:58:30;;;;;;;5.47;1.80;;;14.80;57.30;;;;;;4996827;28;20042;-55
2021/03/06 05:00:56;;;;;;;3.25;1.60;;;14.80;57.30;;;;;;5011254;28;20030;-55
2021/03/06 05:03:21;;;;;;;3.90;1.42;;;14.80;57.30;;;;;;5014707;28;20030;-56
2021/03/06 05:05:47;;;;;;;3.60;1.30;;;14.70;57.20;;;;;;5008586;28;20077;-54
2021/03/06 05:08:12;;;;;;;3.63;1.52;;;14.70;57.30;;;;;;4998520;28;20105;-55
2021/03/06 05:10:38;;;;;;;4.85;1.65;;;14.70;57.30;;;;;;5003528;28;20038;-56
2021/03/06 05:13:03;;;;;;;3.85;1.50;;;14.70;57.40;;;;;;4993897;28;20085;-54
2021/03/06 05:15:29;;;;;;;2.92;1.10;;;14.70;57.40;;;;;;4995162;28;20101;-55
2021/03/06 05:17:54;;;;;;;3.38;1.40;;;14.70;57.40;;;;;;4994570;28;20105;-55
2021/03/06 05:20:20;;;;;;;3.72;1.35;;;14.70;57.40;;;;;;4998372;28;20455;-55
2021/03/06 05:22:45;;;;;;;3.95;1.52;;;14.70;57.50;;;;;;4994629;28;20477;-54
2021/03/06 05:25:11;;;;;;;4.53;1.63;;;14.70;57.50;;;;;;4994453;28;20030;-55
2021/03/06 05:27:37;;;;;;;3.53;1.33;;;14.70;57.50;;;;;;5002951;28;20030;-55
2021/03/06 05:30:03;;;;;;;2.67;1.17;;;14.60;57.50;;;;;;5007288;28;20026;-55
2021/03/06 05:32:28;;;;;;;3.50;1.38;;;14.60;57.50;;;;;;4994303;28;20038;-54
2021/03/06 05:34:54;;;;;;;2.85;1.35;;;14.70;57.60;;;;;;4998603;28;20109;-55
2021/03/06 05:37:20;;;;;;;3.95;1.50;;;14.60;57.50;;;;;;4995080;28;20030;-55
2021/03/06 05:39:46;;;;;;;4.07;1.40;;;14.60;57.60;;;;;;4990961;28;20403;-55
2021/03/06 05:42:11;;;;;;;3.83;1.23;;;14.60;57.60;;;;;;4994230;28;20027;-55
2021/03/06 05:44:38;;;;;;;4.50;1.67;;;14.60;57.60;;;;;;4999283;28;20097;-55
2021/03/06 05:47:04;;;;;;;3.58;1.10;;;14.60;57.60;;;;;;5002307;28;20096;-54
2021/03/06 05:49:30;;;;;;;24.40;2.03;;;14.70;58.00;;;;;;5012382;28;20062;-55
2021/03/06 05:51:57;;;;;;;4.75;1.50;;;15.10;57.40;;;;;;4976824;28;20535;-55
2021/03/06 05:54:26;;;;;;;4.13;1.38;;;15.20;56.80;;;;;;4994287;28;20045;-55
2021/03/06 05:56:52;;;;;;;3.38;1.25;;;15.20;56.90;;;;;;4994941;28;20099;-55
2021/03/06 05:59:20;;;;;;;2.72;1.20;;;15.20;56.70;;;;;;4993596;28;20022;-55
2021/03/06 06:01:48;;;;;;;2.75;1.20;;;14.90;57.00;;;;;;5010627;28;20053;-56
2021/03/06 06:04:14;;;;;;;4.22;1.30;;;14.70;57.20;;;;;;4995687;28;20026;-56
2021/03/06 06:06:40;;;;;;;4.30;1.38;;;14.70;57.40;;;;;;4986997;28;20109;-55
2021/03/06 06:12:27;;;;;;;4.97;1.30;;;14.60;57.50;;;;;;5011081;28;20025;-58
2021/03/06 06:15:43;;;;;;;3.60;1.20;;;14.60;57.70;;;;;;5031878;28;20029;-56
2021/03/06 06:18:09;;;;;;;4.38;1.30;;;14.50;57.70;;;;;;5003836;28;20033;-56
2021/03/06 06:20:38;;;;;;;3.80;1.10;;;14.50;57.70;;;;;;5022699;28;20399;-56
2021/03/06 06:26:27;;;;;;;5.50;1.17;;;14.60;57.50;;;;;;5011746;28;20499;-56
2021/03/06 06:28:53;;;;;;;2.92;1.20;;;14.60;57.50;;;;;;5025860;28;20084;-56
2021/03/06 06:31:18;;;;;;;5.18;1.20;;;14.60;57.50;;;;;;5020737;28;20029;-56
2021/03/06 06:33:44;;;;;;;6.32;1.30;;;14.60;57.50;;;;;;5012132;28;20022;-56
2021/03/06 06:39:32;;;;;;;3.70;1.10;;;14.60;57.40;;;;;;4966906;28;20107;-56
2021/03/06 06:41:59;;;;;;;3.80;1.58;;;14.70;57.30;;;;;;4958038;28;20106;-56
2021/03/06 06:47:49;;;;;;;5.20;1.38;;;14.80;57.10;;;;;;4996020;28;20534;-58
2021/03/06 06:53:37;;;;;;;6.07;1.20;;;15.00;56.50;;;;;;4992396;28;20499;-56
2021/03/06 06:56:02;;;;;;;4.97;1.55;;;15.00;56.30;;;;;;5006298;28;20029;-55
2021/03/06 06:58:35;;;;;;;5.68;1.50;;;15.00;56.30;;;;;;4988348;28;20014;-57
2021/03/06 07:04:15;;;;;;;4.10;1.38;;;15.00;56.20;;;;;;4957935;28;20041;-57
2021/03/06 07:13:40;;;;;;;27.95;3.03;;;15.00;57.10;;;;;;5020920;28;20029;-62
2021/03/06 07:16:50;;;;;;;16.10;3.40;;;15.10;56.70;;;;;;5026209;28;20029;-63
2021/03/06 07:21:50;;;;;;;11.30;1.90;;;15.20;55.90;;;;;;5003849;28;20186;-57
2021/03/06 07:24:16;;;;;;;12.75;2.25;;;15.10;55.70;;;;;;5056323;28;20383;-55
2021/03/06 07:30:05;;;;;;;13.07;2.30;;;15.10;55.70;;;;;;5023666;28;20128;-57
2021/03/06 07:32:36;;;;;;;9.40;1.83;;;15.20;56.30;;;;;;5013265;28;20115;-57
2021/03/06 07:35:05;;;;;;;14.50;2.10;;;15.80;77.30;;;;;;5026478;28;20155;-57
2021/03/06 07:37:31;;;;;;;14.15;1.95;;;17.00;76.90;;;;;;5004395;28;20025;-57
2021/03/06 07:40:46;;;;;;;11.13;2.25;;;17.20;54.90;;;;;;5004799;28;20056;-56
2021/03/06 07:43:17;;;;;;;10.07;2.42;;;16.40;54.80;;;;;;4998990;28;20065;-57
2021/03/06 07:45:45;;;;;;;10.20;2.42;;;16.10;55.50;;;;;;5011475;28;20494;-56
2021/03/06 07:48:15;;;;;;;14.68;3.20;;;16.00;55.50;;;;;;5016492;28;20108;-56
2021/03/06 07:50:47;;;;;;;6.88;2.70;;;16.00;55.20;;;;;;5023683;28;20030;-56
2021/03/06 07:53:14;;;;;;;9.98;2.40;;;16.00;55.30;;;;;;5019091;28;20022;-57
2021/03/06 07:55:40;;;;;;;9.05;2.47;;;16.00;55.50;;;;;;5005467;28;20155;-57
2021/03/06 07:58:07;;;;;;;8.13;2.33;;;15.90;55.30;;;;;;5009669;28;20116;-56
2021/03/06 08:00:45;;;;;;;7.05;2.30;;;16.00;55.40;;;;;;5015731;28;20374;-57
2021/03/06 08:13:36;;;;;;;11.93;2.95;;;16.00;55.30;;;;;;5024500;28;20048;-56
2021/03/06 08:16:20;;;;;;;11.10;2.92;;;16.50;64.40;;;;;;5024991;28;20407;-56
2021/03/06 08:18:46;;;;;;;10.63;2.70;;;17.20;53.50;;;;;;5025168;28;20029;-57
2021/03/06 08:21:30;;;;;;;13.13;5.28;;;16.70;54.10;;;;;;5012369;28;20025;-57
2021/03/06 08:24:24;;;;;;;10.65;4.10;;;16.40;54.80;;;;;;5010920;28;20033;-57
2021/03/06 08:27:01;;;;;;;9.00;4.20;;;16.30;55.40;;;;;;4992196;28;20040;-58
2021/03/06 08:30:14;;;;;;;22.80;6.00;;;16.20;55.20;;;;;;5012597;28;20017;-55
2021/03/06 08:36:24;;;;;;;11.98;3.72;;;16.50;55.20;;;;;;5004192;28;20100;-57
2021/03/06 08:38:49;;;;;;;13.45;3.88;;;16.40;55.00;;;;;;5008415;28;20061;-57
2021/03/06 08:44:38;;;;;;;13.20;3.30;;;16.50;54.80;;;;;;5008293;28;20661;-56
2021/03/06 08:50:28;;;;;;;19.48;3.55;;;16.80;55.00;;;;;;5016731;28;20033;-58
2021/03/06 08:53:06;;;;;;;21.77;4.85;;;16.90;54.20;;;;;;5015919;28;20087;-56
2021/03/06 08:55:34;;;;;;;20.77;6.80;;;17.10;54.60;;;;;;5022569;28;20037;-55
2021/03/06 08:58:04;;;;;;;25.52;7.15;;;17.10;54.70;;;;;;5024206;28;20483;-58
2021/03/06 09:00:43;;;;;;;32.65;10.00;;;17.20;54.90;;;;;;5012192;28;20053;-59
2021/03/06 09:03:17;;;;;;;22.77;9.75;;;17.20;54.90;;;;;;5011835;28;20033;-58
2021/03/06 09:05:45;;;;;;;20.95;9.75;;;17.10;54.90;;;;;;5010224;28;20483;-57
2021/03/06 09:08:11;;;;;;;20.40;8.70;;;17.10;55.00;;;;;;5009409;28;20040;-56
2021/03/06 09:10:47;;;;;;;16.00;9.32;;;17.10;55.30;;;;;;5007931;28;20034;-54
2021/03/06 09:13:21;;;;;;;22.25;11.00;;;17.00;55.40;;;;;;5013983;28;20062;-56
2021/03/06 09:15:51;;;;;;;18.30;8.77;;;17.00;56.20;;;;;;4999957;28;20042;-57
2021/03/06 09:18:21;;;;;;;23.33;9.30;;;17.00;55.70;;;;;;5011843;28;20462;-57
2021/03/06 09:20:52;;;;;;;18.55;9.23;;;17.00;55.80;;;;;;5014599;28;20029;-56
2021/03/06 09:23:39;;;;;;;17.98;8.38;;;17.00;55.90;;;;;;5008075;28;20032;-57
2021/03/06 09:26:09;;;;;;;15.07;7.32;;;17.10;56.00;;;;;;5005270;28;20065;-59
2021/03/06 09:28:36;;;;;;;15.63;7.45;;;17.10;55.90;;;;;;5000105;28;20029;-56
2021/03/06 09:31:08;;;;;;;15.43;7.82;;;17.10;55.80;;;;;;5017809;28;20033;-56
2021/03/06 09:33:35;;;;;;;16.33;7.47;;;17.20;55.90;;;;;;5023533;28;20552;-54
2021/03/06 09:36:16;;;;;;;15.55;6.80;;;17.10;56.00;;;;;;5010551;28;20796;-56
2021/03/06 09:38:50;;;;;;;10.80;6.43;;;17.10;56.00;;;;;;5007837;28;20048;-56
2021/03/06 09:41:24;;;;;;;13.20;6.68;;;17.10;56.10;;;;;;5009056;28;20038;-56
2021/03/06 09:43:55;;;;;;;13.35;5.85;;;17.10;56.20;;;;;;5007842;28;20034;-55
2021/03/06 09:46:26;;;;;;;10.95;5.45;;;17.00;56.10;;;;;;5007271;28;20077;-55
2021/03/06 09:48:59;;;;;;;;;;;17.00;56.10;;;;;;5006515;28;20029;-55
2021/03/06 09:51:38;;;;;;;11.02;5.20;;;17.00;56.20;;;;;;5007501;28;19909;-55
2021/03/06 09:54:04;;;;;;;11.13;4.95;;;17.00;56.10;;;;;;5024913;28;20025;-56
2021/03/06 09:56:30;;;;;;;14.60;5.25;;;17.00;56.10;;;;;;5016720;28;20063;-56
2021/03/06 09:59:01;;;;;;;13.23;5.35;;;17.10;56.10;;;;;;5011205;28;20035;-56
2021/03/06 10:01:28;;;;;;;9.60;4.18;;;17.10;56.20;;;;;;5006652;28;20022;-55
2021/03/06 10:03:54;;;;;;;11.98;4.88;;;17.10;56.00;;;;;;5007325;28;20060;-56
2021/03/06 10:06:22;;;;;;;10.25;4.25;;;17.10;56.10;;;;;;5006848;28;20186;-56
2021/03/06 10:08:52;;;;;;;11.25;3.80;;;17.10;55.90;;;;;;5013598;28;20029;-56
2021/03/06 10:11:19;;;;;;;10.70;4.50;;;17.20;55.90;;;;;;5010373;28;20113;-57
2021/03/06 10:13:50;;;;;;;8.02;3.83;;;17.20;55.80;;;;;;5004268;28;20034;-56
2021/03/06 10:16:15;;;;;;;9.80;4.17;;;17.30;55.80;;;;;;5001222;28;20037;-56
2021/03/06 10:18:41;;;;;;;11.07;4.10;;;17.20;55.70;;;;;;5005838;28;20117;-56
2021/03/06 10:21:11;;;;;;;9.02;3.50;;;17.20;55.80;;;;;;5016248;28;20498;-56
2021/03/06 10:23:37;;;;;;;8.40;3.13;;;17.20;55.80;;;;;;5026688;28;20441;-58
2021/03/06 11:44:31;;;;;;;9.95;2.53;;;18.60;52.20;;;;;;5024051;28;20147;-59
2021/03/06 11:46:57;;;;;;;8.48;2.47;;;18.60;52.10;;;;;;5031814;28;20032;-60
2021/03/06 11:49:22;;;;;;;11.20;3.70;;;18.70;51.70;;;;;;5005038;28;20029;-57
2021/03/06 11:51:48;;;;;;;9.43;2.90;;;18.80;51.30;;;;;;5053112;28;20108;-60
2021/03/06 11:54:13;;;;;;;10.07;2.53;;;18.90;51.20;;;;;;5075934;22;20050;-60
2021/03/06 12:00:09;;;;;;;18.35;2.90;;;19.00;51.10;;;;;;5016593;28;20429;-60
2021/03/06 12:02:34;;;;;;;13.77;3.00;;;19.20;50.90;;;;;;5029926;28;20018;-61
2021/03/06 12:05:00;;;;;;;21.88;3.67;;;19.30;50.80;;;;;;5043993;28;20017;-61
2021/03/06 12:07:26;;;;;;;24.35;3.80;;;19.30;50.30;;;;;;5045898;28;20029;-61
2021/03/06 12:09:51;;;;;;;12.95;2.90;;;19.30;50.30;;;;;;5030533;28;20070;-62
2021/03/06 12:12:17;;;;;;;14.98;2.55;;;19.40;50.20;;;;;;5030785;28;20455;-61
2021/03/06 12:14:43;;;;;;;14.35;2.78;;;19.40;49.80;;;;;;5030935;28;20071;-61
2021/03/06 12:17:09;;;;;;;20.67;3.33;;;19.40;49.60;;;;;;5054409;28;20079;-60
2021/03/06 12:19:34;;;;;;;15.13;3.08;;;19.30;50.00;;;;;;5060588;28;20086;-60
2021/03/06 12:22:00;;;;;;;11.30;2.75;;;19.30;49.30;;;;;;5063273;28;20434;-61
2021/03/06 12:24:25;;;;;;;11.50;2.17;;;19.30;49.60;;;;;;5074557;28;20075;-61
2021/03/06 12:26:51;;;;;;;16.10;2.60;;;19.40;49.70;;;;;;5071497;28;20032;-62
2021/03/06 12:29:18;;;;;;;14.45;2.53;;;19.40;49.50;;;;;;5074566;28;20025;-61
2021/03/06 12:31:44;;;;;;;12.68;2.45;;;19.40;49.50;;;;;;5073464;28;20063;-61
2021/03/06 12:34:09;;;;;;;10.50;2.47;;;19.40;49.60;;;;;;5074775;28;20052;-61
2021/03/06 12:36:36;;;;;;;9.88;2.35;;;19.40;49.60;;;;;;5073499;28;20478;-61
2021/03/06 12:39:04;;;;;;;8.70;2.40;;;19.50;49.60;;;;;;5074741;28;20021;-61
2021/03/06 12:41:30;;;;;;;8.50;2.58;;;19.30;49.50;;;;;;5074422;28;20021;-61
2021/03/06 12:43:55;;;;;;;9.98;2.38;;;19.20;49.70;;;;;;5074643;28;20031;-61
2021/03/06 12:46:22;;;;;;;8.75;2.13;;;19.10;50.00;;;;;;5074596;28;20068;-61
2021/03/06 12:48:49;;;;;;;11.60;2.30;;;19.00;50.20;;;;;;5073512;28;20446;-61
2021/03/06 12:51:14;;;;;;;5.88;2.10;;;19.00;50.50;;;;;;5074273;28;20025;-61
2021/03/06 12:53:40;;;;;;;7.05;2.35;;;18.90;50.40;;;;;;5073202;28;20052;-61
2021/03/06 12:56:06;;;;;;;7.40;1.83;;;18.80;50.60;;;;;;5074268;28;20423;-66
2021/03/06 12:58:32;;;;;;;10.68;2.17;;;18.70;50.80;;;;;;5073090;28;20017;-62
2021/03/06 13:00:57;;;;;;;9.05;2.28;;;18.80;51.00;;;;;;5074101;28;20103;-61
2021/03/06 13:03:23;;;;;;;12.32;2.50;;;18.90;50.70;;;;;;5074091;28;20024;-62
2021/03/06 13:05:48;;;;;;;12.00;2.50;;;18.90;50.70;;;;;;5074277;28;20028;-61
2021/03/06 13:08:14;;;;;;;8.10;2.05;;;19.00;50.50;;;;;;5072832;28;20033;-62
2021/03/06 13:10:39;;;;;;;8.88;2.60;;;18.90;50.50;;;;;;5073915;28;20029;-62
2021/03/06 13:13:05;;;;;;;7.40;2.10;;;18.90;50.60;;;;;;5073675;28;20028;-62
2021/03/06 13:15:31;;;;;;;11.13;2.28;;;18.90;50.80;;;;;;5073969;28;20024;-63
2021/03/06 13:17:56;;;;;;;7.47;1.92;;;18.90;50.70;;;;;;5073994;28;20052;-64
2021/03/06 13:20:22;;;;;;;10.00;2.00;;;19.00;50.50;;;;;;5072421;28;20159;-63
2021/03/06 13:22:47;;;;;;;8.07;1.98;;;19.00;50.50;;;;;;5073951;28;20024;-61
2021/03/06 13:25:13;;;;;;;8.73;1.95;;;19.00;50.30;;;;;;5073815;28;20397;-61
2021/03/06 13:27:39;;;;;;;6.18;1.77;;;19.00;50.30;;;;;;5073921;28;20035;-61
2021/03/06 13:30:07;;;;;;;6.40;1.75;;;18.90;50.40;;;;;;5073493;28;20029;-62
2021/03/06 13:32:33;;;;;;;5.57;1.88;;;18.90;50.50;;;;;;5073753;28;20056;-61
2021/03/06 13:34:59;;;;;;;7.32;2.10;;;18.90;50.50;;;;;;5071772;28;20596;-61
2021/03/06 13:37:24;;;;;;;6.30;1.50;;;18.90;50.50;;;;;;5072326;28;20123;-62
2021/03/06 13:39:50;;;;;;;8.57;2.00;;;18.80;50.60;;;;;;5073441;28;20024;-62
2021/03/06 13:42:15;;;;;;;10.07;1.92;;;18.70;50.70;;;;;;5072337;28;20021;-63
2021/03/06 13:44:41;;;;;;;7.63;1.75;;;18.70;50.70;;;;;;5073465;28;20025;-63
2021/03/06 13:47:06;;;;;;;6.32;1.92;;;18.60;51.10;;;;;;5073528;28;20075;-62
2021/03/06 13:49:32;;;;;;;8.32;1.67;;;18.50;51.10;;;;;;5071765;28;20392;-63
2021/03/06 13:51:57;;;;;;;5.60;1.50;;;18.40;51.00;;;;;;5071947;28;20082;-63
2021/03/06 13:54:23;;;;;;;6.70;1.67;;;18.40;50.80;;;;;;5073293;28;20409;-63
2021/03/06 13:56:49;;;;;;;5.20;1.60;;;18.40;51.10;;;;;;5071998;28;20473;-63
2021/03/06 13:59:14;;;;;;;10.40;1.98;;;18.40;51.30;;;;;;5071902;28;20016;-62
2021/03/06 14:01:40;;;;;;;6.07;2.03;;;18.30;50.90;;;;;;5072940;28;20074;-63
2021/03/06 14:04:05;;;;;;;6.80;2.25;;;18.20;50.90;;;;;;5071780;28;20262;-63
2021/03/06 14:06:31;;;;;;;6.28;1.70;;;18.30;51.10;;;;;;5073265;28;20055;-64
2021/03/06 14:08:56;;;;;;;7.32;1.52;;;18.20;51.30;;;;;;5073483;28;20444;-63
2021/03/06 14:11:22;;;;;;;6.45;1.90;;;18.20;51.40;;;;;;5072099;28;20152;-63
2021/03/06 14:13:48;;;;;;;9.85;2.53;;;18.20;51.30;;;;;;5072867;28;20035;-63
2021/03/06 14:16:14;;;;;;;7.47;1.80;;;18.10;50.80;;;;;;5072700;28;20033;-63
2021/03/06 14:18:40;;;;;;;8.30;1.80;;;18.10;51.00;;;;;;5071469;28;20543;-63
2021/03/06 14:21:06;;;;;;;5.55;1.80;;;18.10;51.10;;;;;;5071146;28;20069;-63
2021/03/06 14:23:32;;;;;;;7.47;2.03;;;18.10;51.10;;;;;;5072305;28;20024;-63
2021/03/06 15:46:10;;;;;;;13.07;3.15;;;17.40;51.20;;;;;;5103941;27;20323;-57
2021/03/06 15:48:35;;;;;;;12.63;3.00;;;17.40;51.60;;;;;;5098607;28;20035;-56
2021/03/06 16:02:41;;;;;;;14.63;3.72;;;17.30;51.30;;;;;;5097245;27;20837;-54
2021/03/06 16:05:08;;;;;;;22.58;3.95;;;17.30;52.40;;;;;;5109796;22;20020;-60
2021/03/06 16:07:34;;;;;;;16.35;4.60;;;17.40;52.50;;;;;;5072767;28;20044;-59
2021/03/06 16:09:59;;;;;;;22.20;11.60;;;17.40;52.10;;;;;;5077244;28;20021;-59
2021/03/06 16:12:25;;;;;;;18.65;7.07;;;17.40;52.20;;;;;;5078451;28;20017;-61
2021/03/06 16:14:50;;;;;;;19.48;5.47;;;17.50;52.30;;;;;;5058224;28;20057;-61
2021/03/06 16:17:16;;;;;;;15.77;6.32;;;17.50;52.30;;;;;;5039980;28;20542;-60
2021/03/06 16:19:42;;;;;;;17.95;8.07;;;17.60;52.10;;;;;;5053119;28;20052;-68
2021/03/06 16:22:09;;;;;;;15.05;7.70;;;17.60;52.00;;;;;;5039860;28;20029;-67
2021/03/06 16:24:34;;;;;;;17.05;6.63;;;17.70;52.20;;;;;;5053730;28;20044;-67
2021/03/06 16:27:00;;;;;;;15.80;5.53;;;17.70;52.10;;;;;;5032966;28;20028;-68
2021/03/06 16:29:25;;;;;;;12.80;5.07;;;17.80;52.00;;;;;;5052326;28;20064;-71
2021/03/06 16:31:51;;;;;;;12.18;4.93;;;17.70;51.40;;;;;;5043832;28;20025;-67
2021/03/06 16:34:17;;;;;;;16.58;5.57;;;17.80;51.40;;;;;;5047178;28;20037;-68
2021/03/06 16:36:43;;;;;;;11.15;5.10;;;17.70;51.30;;;;;;5055111;28;20048;-67
2021/03/06 16:39:08;;;;;;;12.70;6.13;;;17.70;51.30;;;;;;5037399;28;20052;-69
2021/03/06 16:41:34;;;;;;;10.75;5.60;;;17.70;51.50;;;;;;5064362;28;20033;-69
2021/03/06 16:44:03;;;;;;;16.20;5.30;;;17.70;51.50;;;;;;5067729;28;20028;-67